createdAt,value
2022-11-26T00:01:17.606Z,100641.69
2022-11-26T00:03:45.770Z,100649.19
2022-11-26T00:06:32.181Z,100653.47
2022-11-26T00:09:00.755Z,100648.09
2022-11-26T00:11:28.115Z,100656.88
2022-11-26T00:13:55.450Z,100661.25
2022-11-26T00:16:23.327Z,100669.66
2022-11-26T00:18:50.740Z,100668.09
2022-11-26T00:21:22.438Z,100672.69
2022-11-26T00:23:50.780Z,100667.06
2022-11-26T00:26:21.313Z,100668.53
2022-11-26T00:28:51.578Z,100661.03
2022-11-26T00:31:19.346Z,100658.63
2022-11-26T00:33:47.197Z,100666.00
2022-11-26T00:36:21.829Z,100659.22
2022-11-26T00:38:55.142Z,100665.41
2022-11-26T00:41:24.920Z,100666.84
2022-11-26T00:43:52.558Z,100664.88
2022-11-26T00:46:21.111Z,100673.56
2022-11-26T00:48:48.759Z,100674.72
2022-11-26T00:51:25.111Z,100677.00
2022-11-26T00:53:56.701Z,100673.97
2022-11-26T00:56:24.260Z,100670.28
2022-11-26T00:58:51.574Z,100675.19
2022-11-26T01:01:23.754Z,100678.44
2022-11-26T01:03:51.545Z,100681.22
2022-11-26T01:06:26.550Z,100683.38
2022-11-26T01:08:54.157Z,100680.91
2022-11-26T01:11:22.736Z,100678.75
2022-11-26T01:13:51.370Z,100677.87
2022-11-26T01:16:30.944Z,100678.88
2022-11-26T01:18:59.600Z,100680.09
2022-11-26T01:21:30.380Z,100684.03
2022-11-26T01:23:57.730Z,100679.12
2022-11-26T01:26:31.883Z,100683.44
2022-11-26T01:28:59.441Z,100686.22
2022-11-26T01:31:28.450Z,100679.22
2022-11-26T01:33:56.245Z,100682.16
2022-11-26T01:36:33.885Z,100686.28
2022-11-26T01:39:22.495Z,100683.47
2022-11-26T01:41:58.983Z,100675.19
2022-11-26T01:44:29.159Z,100679.03
2022-11-26T01:46:57.706Z,100679.69
2022-11-26T01:49:28.273Z,100681.88
2022-11-26T01:52:34.142Z,100680.50
2022-11-26T01:55:01.734Z,100678.56
2022-11-26T01:57:29.913Z,100673.72
2022-11-26T02:00:01.474Z,100673.00
2022-11-26T02:02:29.155Z,100674.56
2022-11-26T02:05:09.504Z,100673.06
2022-11-26T02:07:37.040Z,100679.25
2022-11-26T02:10:04.963Z,100680.28
2022-11-26T02:12:32.513Z,100679.38
2022-11-26T02:14:59.874Z,100684.56
2022-11-26T02:17:41.874Z,100679.03
2022-11-26T02:20:24.396Z,100680.72
2022-11-26T02:22:54.876Z,100685.09
2022-11-26T02:25:40.426Z,100690.81
2022-11-26T02:28:49.750Z,100687.19
2022-11-26T02:31:47.971Z,100684.22
2022-11-26T02:34:23.571Z,100691.19
2022-11-26T02:36:57.749Z,100694.56
2022-11-26T02:39:27.145Z,100690.19
2022-11-26T02:42:00.073Z,100690.44
2022-11-26T02:44:46.299Z,100696.59
2022-11-26T02:47:16.751Z,100693.97
2022-11-26T02:49:46.312Z,100698.19
2022-11-26T02:52:14.241Z,100703.44
2022-11-26T02:54:42.745Z,100705.53
2022-11-26T02:57:14.054Z,100720.09
2022-11-26T02:59:42.154Z,100719.06
2022-11-26T03:02:14.856Z,100720.62
2022-11-26T03:04:43.403Z,100716.97
2022-11-26T03:07:13.044Z,100721.84
2022-11-26T03:09:56.245Z,100719.19
2022-11-26T03:12:24.283Z,100721.97
2022-11-26T03:14:51.955Z,100723.62
2022-11-26T03:17:19.328Z,100726.38
2022-11-26T03:19:47.396Z,100727.25
2022-11-26T03:22:15.658Z,100722.97
2022-11-26T03:24:43.095Z,100724.78
2022-11-26T03:27:10.860Z,100729.81
2022-11-26T03:29:38.285Z,100739.84
2022-11-26T03:32:05.811Z,100733.22
2022-11-26T03:34:33.470Z,100735.06
2022-11-26T03:37:00.760Z,100743.47
2022-11-26T03:39:28.106Z,100742.44
2022-11-26T03:41:55.756Z,100739.09
2022-11-26T03:44:23.069Z,100741.81
2022-11-26T03:46:50.443Z,100750.72
2022-11-26T03:49:18.033Z,100749.34
2022-11-26T03:51:45.381Z,100749.56
2022-11-26T03:54:12.675Z,100750.81
2022-11-26T03:56:40.258Z,100759.69
2022-11-26T03:59:07.680Z,100753.78
2022-11-26T04:01:35.292Z,100754.22
2022-11-26T04:04:03.058Z,100758.47
2022-11-26T04:06:30.430Z,100761.69
2022-11-26T04:08:57.766Z,100755.66
2022-11-26T04:11:25.395Z,100761.53
2022-11-26T04:13:52.750Z,100759.69
2022-11-26T04:16:20.936Z,100761.69
2022-11-26T04:18:48.514Z,100759.53
2022-11-26T04:21:15.863Z,100763.72
2022-11-26T04:23:43.211Z,100758.56
2022-11-26T04:26:10.795Z,100760.38
2022-11-26T04:28:38.106Z,100764.50
2022-11-26T04:31:05.728Z,100765.50
2022-11-26T04:33:33.403Z,100771.72
2022-11-26T04:36:01.135Z,100775.59
2022-11-26T04:38:28.422Z,100781.44
2022-11-26T04:40:56.095Z,100782.50
2022-11-26T04:43:23.402Z,100790.75
2022-11-26T04:45:50.787Z,100788.72
2022-11-26T04:48:18.731Z,100797.84
2022-11-26T04:50:46.146Z,100798.41
2022-11-26T04:53:13.487Z,100801.78
2022-11-26T04:55:41.079Z,100793.88
2022-11-26T04:58:08.392Z,100803.56
2022-11-26T05:00:35.814Z,100796.09
2022-11-26T05:03:03.493Z,100803.44
2022-11-26T05:05:30.878Z,100812.78
2022-11-26T05:07:58.230Z,100808.75
2022-11-26T05:10:25.883Z,100818.47
2022-11-26T05:12:53.218Z,100821.91
2022-11-26T05:15:20.564Z,100818.81
2022-11-26T05:17:48.256Z,100822.22
2022-11-26T05:20:15.622Z,100829.03
2022-11-26T05:22:43.194Z,100828.09
2022-11-26T05:25:10.794Z,100811.09
2022-11-26T05:27:38.123Z,100818.78
2022-11-26T05:30:07.343Z,100824.91
2022-11-26T05:32:34.999Z,100830.09
2022-11-26T05:35:02.338Z,100839.81
2022-11-26T05:37:29.643Z,100841.94
2022-11-26T05:39:57.185Z,100836.50
2022-11-26T05:42:24.502Z,100845.97
2022-11-26T05:44:51.982Z,100842.59
2022-11-26T05:47:19.600Z,100850.63
2022-11-26T05:49:46.898Z,100847.53
2022-11-26T05:52:14.261Z,100852.31
2022-11-26T05:54:41.947Z,100849.59
2022-11-26T05:57:10.763Z,100859.53
2022-11-26T05:59:38.066Z,100864.09
2022-11-26T06:02:05.889Z,100858.62
2022-11-26T06:04:33.612Z,100861.09
2022-11-26T06:07:00.882Z,100864.09
2022-11-26T06:09:28.186Z,100879.19
2022-11-26T06:11:55.795Z,100876.59
2022-11-26T06:14:23.141Z,100876.22
2022-11-26T06:16:50.543Z,100872.44
2022-11-26T06:19:18.265Z,100883.63
2022-11-26T06:21:45.873Z,100875.62
2022-11-26T06:24:13.148Z,100878.81
2022-11-26T06:26:40.783Z,100881.47
2022-11-26T06:29:08.115Z,100884.91
2022-11-26T06:31:35.515Z,100889.41
2022-11-26T06:34:03.218Z,100890.63
2022-11-26T06:36:30.565Z,100890.63
2022-11-26T06:38:57.877Z,100896.09
2022-11-26T06:41:25.454Z,100889.31
2022-11-26T06:43:52.762Z,100888.91
2022-11-26T06:46:20.191Z,100889.28
2022-11-26T06:48:47.857Z,100893.69
2022-11-26T06:51:16.264Z,100891.84
2022-11-26T06:53:43.651Z,100892.28
2022-11-26T06:56:18.019Z,100895.91
2022-11-26T06:58:50.193Z,100907.19
2022-11-26T07:01:21.245Z,100906.41
2022-11-26T07:03:48.642Z,100915.53
2022-11-26T07:06:21.061Z,100918.00
2022-11-26T07:08:49.286Z,100912.63
2022-11-26T07:11:17.553Z,100919.44
2022-11-26T07:13:44.886Z,100927.97
2022-11-26T07:16:12.754Z,100920.09
2022-11-26T07:18:40.225Z,100924.59
2022-11-26T07:21:09.891Z,100917.91
2022-11-26T07:23:38.482Z,100922.41
2022-11-26T07:26:07.383Z,100923.81
2022-11-26T07:28:35.483Z,100931.13
2022-11-26T07:31:05.124Z,100933.41
2022-11-26T07:33:32.701Z,100934.16
2022-11-26T07:36:01.389Z,100938.22
2022-11-26T07:38:29.265Z,100928.72
2022-11-26T07:41:06.437Z,100930.94
2022-11-26T07:43:34.994Z,100932.41
2022-11-26T07:46:04.343Z,100945.19
2022-11-26T07:48:32.402Z,100944.97
2022-11-26T07:51:01.149Z,100943.72
2022-11-26T07:53:29.816Z,100942.75
2022-11-26T07:55:57.431Z,100945.91
2022-11-26T07:58:25.274Z,100938.31
2022-11-26T08:00:54.810Z,100939.44
2022-11-26T08:03:22.734Z,100940.62
2022-11-26T08:05:50.109Z,100936.78
2022-11-26T08:08:17.522Z,100952.19
2022-11-26T08:10:45.155Z,100955.34
2022-11-26T08:13:12.487Z,100961.47
2022-11-26T08:15:39.790Z,100960.66
2022-11-26T08:18:07.401Z,100966.59
2022-11-26T08:20:34.721Z,100975.03
2022-11-26T08:23:02.058Z,100969.88
2022-11-26T08:25:29.678Z,100987.25
2022-11-26T08:27:57.282Z,100989.47
2022-11-26T08:30:24.618Z,100985.41
2022-11-26T08:32:52.197Z,100981.91
2022-11-26T08:35:19.528Z,100982.69
2022-11-26T08:37:46.822Z,100988.66
2022-11-26T08:40:14.583Z,100990.75
2022-11-26T08:42:41.925Z,100989.97
2022-11-26T08:45:09.497Z,100994.25
2022-11-26T08:47:37.351Z,100990.84
2022-11-26T08:50:05.586Z,101001.12
2022-11-26T08:52:32.885Z,100993.19
2022-11-26T08:55:00.489Z,100989.16
2022-11-26T08:57:27.921Z,100993.06
2022-11-26T08:59:56.068Z,100989.56
2022-11-26T09:02:23.690Z,100995.88
2022-11-26T09:04:51.072Z,100993.16
2022-11-26T09:07:18.520Z,100993.31
2022-11-26T09:09:46.242Z,100995.78
2022-11-26T09:12:13.551Z,100988.41
2022-11-26T09:14:41.858Z,100997.56
2022-11-26T09:17:11.465Z,101010.00
2022-11-26T09:19:39.316Z,101004.25
2022-11-26T09:22:06.635Z,101007.94
2022-11-26T09:24:34.343Z,101009.13
2022-11-26T09:27:07.479Z,101007.47
2022-11-26T09:29:36.086Z,101008.97
2022-11-26T09:34:52.589Z,101010.37
2022-11-26T09:37:19.939Z,101014.06
2022-11-26T09:39:47.370Z,101013.78
2022-11-26T09:42:26.623Z,101010.78
2022-11-26T09:45:02.956Z,101005.31
2022-11-26T09:47:42.013Z,101010.37
2022-11-26T09:50:15.318Z,101014.59
2022-11-26T09:53:04.389Z,101008.75
2022-11-26T09:55:32.579Z,101011.84
2022-11-26T09:58:16.357Z,101008.12
2022-11-26T10:00:49.392Z,100997.22
2022-11-26T10:03:18.328Z,101012.50
2022-11-26T10:06:14.508Z,101009.50
2022-11-26T10:08:51.413Z,101005.09
2022-11-26T10:11:26.012Z,101006.84
2022-11-26T10:14:15.573Z,101010.19
2022-11-26T10:16:55.218Z,101010.44
2022-11-26T10:19:25.154Z,101015.00
2022-11-26T10:21:59.821Z,101006.94
2022-11-26T10:24:37.061Z,101013.34
2022-11-26T10:27:12.606Z,101014.44
2022-11-26T10:29:42.502Z,101016.41
2022-11-26T10:32:16.427Z,101016.25
2022-11-26T10:34:52.492Z,101011.56
2022-11-26T10:37:22.195Z,101009.87
2022-11-26T10:39:52.917Z,101003.88
2022-11-26T10:42:24.486Z,101011.41
2022-11-26T10:44:53.293Z,101011.56
2022-11-26T10:47:28.887Z,101010.16
2022-11-26T10:53:21.289Z,101013.81
2022-11-26T10:55:49.068Z,101009.78
2022-11-26T10:58:19.810Z,101016.50
2022-11-26T11:00:49.943Z,101009.87
2022-11-26T11:03:59.342Z,101015.69
2022-11-26T11:06:19.742Z,101015.44
2022-11-26T11:08:49.468Z,101017.97
2022-11-26T11:11:25.412Z,101008.94
2022-11-26T11:13:53.554Z,101015.69
2022-11-26T11:16:27.671Z,101007.16
2022-11-26T11:19:00.904Z,101013.19
2022-11-26T11:21:30.902Z,101001.69
2022-11-26T11:24:17.246Z,101002.87
2022-11-26T11:26:53.503Z,100999.69
2022-11-26T11:29:39.462Z,100998.81
2022-11-26T11:32:35.676Z,100999.56
2022-11-26T11:35:26.151Z,101005.63
2022-11-26T11:37:55.250Z,100999.56
2022-11-26T11:40:27.396Z,101000.44
2022-11-26T11:43:00.196Z,101003.56
2022-11-26T11:45:34.897Z,100998.16
2022-11-26T11:48:22.133Z,101002.31
2022-11-26T11:50:57.017Z,101010.50
2022-11-26T11:53:27.211Z,101005.31
2022-11-26T11:56:27.259Z,101005.25
2022-11-26T11:59:15.775Z,101001.22
2022-11-26T12:01:55.243Z,101004.34
2022-11-26T12:04:37.791Z,100990.19
2022-11-26T12:07:34.629Z,100994.06
2022-11-26T12:10:16.845Z,101001.44
2022-11-26T12:12:50.831Z,100997.50
2022-11-26T12:15:25.437Z,101003.34
2022-11-26T12:18:14.123Z,101003.34
2022-11-26T12:20:47.824Z,101002.59
2022-11-26T12:23:33.378Z,101012.94
2022-11-26T12:26:19.889Z,101020.69
2022-11-26T12:29:02.270Z,101014.22
2022-11-26T12:31:34.353Z,101009.97
2022-11-26T12:34:08.717Z,101019.25
2022-11-26T12:36:45.776Z,101013.63
2022-11-26T12:39:20.497Z,101014.47
2022-11-26T12:41:58.878Z,101009.06
2022-11-26T12:44:34.639Z,101016.81
2022-11-26T12:47:14.510Z,101007.25
2022-11-26T12:50:02.090Z,101005.94
2022-11-26T12:52:58.961Z,101006.03
2022-11-26T12:55:33.313Z,101004.72
2022-11-26T12:58:17.348Z,101008.62
2022-11-26T13:00:44.754Z,100999.66
2022-11-26T13:03:18.323Z,100998.97
2022-11-26T13:06:39.423Z,100991.78
2022-11-26T13:09:32.474Z,101007.88
2022-11-26T13:12:14.175Z,101014.69
2022-11-26T13:14:56.705Z,101018.94
2022-11-26T13:17:43.087Z,101017.63
2022-11-26T13:20:42.109Z,101009.44
2022-11-26T13:23:28.390Z,101011.97
2022-11-26T13:26:06.195Z,101008.44
2022-11-26T13:28:59.738Z,101009.25
2022-11-26T13:31:46.161Z,101011.31
2022-11-26T13:34:38.916Z,101012.78
2022-11-26T13:37:25.565Z,101013.50
2022-11-26T13:40:05.453Z,101005.72
2022-11-26T13:43:04.021Z,101011.66
2022-11-26T13:45:50.061Z,101013.63
2022-11-26T13:48:36.535Z,101010.53
2022-11-26T13:51:13.754Z,101015.03
2022-11-26T13:53:47.490Z,101016.78
2022-11-26T13:56:16.154Z,101017.94
2022-11-26T13:58:48.757Z,101029.66
2022-11-26T14:01:29.517Z,101026.03
2022-11-26T14:03:57.701Z,101041.63
2022-11-26T14:06:27.981Z,101034.28
2022-11-26T14:08:56.073Z,101035.09
2022-11-26T14:11:45.843Z,101031.44
2022-11-26T14:14:25.221Z,101030.69
2022-11-26T14:17:11.667Z,101041.34
2022-11-26T14:19:45.214Z,101031.88
2022-11-26T14:22:21.891Z,101039.19
2022-11-26T14:24:51.917Z,101034.72
2022-11-26T14:27:21.877Z,101035.94
2022-11-26T14:30:15.401Z,101035.44
2022-11-26T14:32:59.825Z,101024.47
2022-11-26T14:35:36.036Z,101012.84
2022-11-26T14:38:06.188Z,101013.44
2022-11-26T14:40:38.210Z,101015.59
2022-11-26T14:43:06.994Z,101019.25
2022-11-26T14:45:34.622Z,101021.41
2022-11-26T14:48:03.910Z,101024.34
2022-11-26T14:50:33.443Z,101032.97
2022-11-26T14:53:03.755Z,101038.75
2022-11-26T14:55:31.885Z,101043.06
2022-11-26T14:57:59.303Z,101047.47
2022-11-26T15:00:29.449Z,101054.78
2022-11-26T15:02:57.216Z,101063.59
2022-11-26T15:05:27.371Z,101067.31
2022-11-26T15:07:59.580Z,101067.09
2022-11-26T15:10:27.454Z,101066.72
2022-11-26T15:12:56.430Z,101062.72
2022-11-26T15:15:24.526Z,101071.50
2022-11-26T15:17:55.096Z,101073.00
2022-11-26T15:20:23.311Z,101063.63
2022-11-26T15:22:52.314Z,101057.03
2022-11-26T15:25:28.331Z,101052.88
2022-11-26T15:27:55.917Z,101059.63
2022-11-26T15:30:25.551Z,101054.63
2022-11-26T15:33:04.320Z,101060.19
2022-11-26T15:35:33.276Z,101056.97
2022-11-26T15:38:00.676Z,101070.69
2022-11-26T15:40:42.606Z,101064.50
2022-11-26T15:43:23.439Z,101064.91
2022-11-26T15:45:52.139Z,101067.00
2022-11-26T15:48:28.092Z,101063.38
2022-11-26T15:51:13.257Z,101067.37
2022-11-26T15:53:45.857Z,101061.06
2022-11-26T15:56:22.020Z,101066.66
2022-11-26T15:58:53.112Z,101060.91
2022-11-26T16:01:30.420Z,101063.03
2022-11-26T16:04:04.320Z,101063.41
2022-11-26T16:06:36.133Z,101063.06
2022-11-26T16:09:12.597Z,101064.16
2022-11-26T16:11:56.868Z,101063.03
2022-11-26T16:14:39.897Z,101061.88
2022-11-26T16:17:17.167Z,101061.81
2022-11-26T16:19:51.057Z,101056.16
2022-11-26T16:22:21.682Z,101059.38
2022-11-26T16:25:07.529Z,101058.25
2022-11-26T16:27:34.888Z,101064.28
2022-11-26T16:30:07.555Z,101062.06
2022-11-26T16:32:34.813Z,101060.97
2022-11-26T16:35:17.432Z,101063.63
2022-11-26T16:37:49.593Z,101059.38
2022-11-26T16:40:19.165Z,101064.03
2022-11-26T16:42:46.920Z,101063.56
2022-11-26T16:45:14.790Z,101048.97
2022-11-26T16:47:45.040Z,101055.28
2022-11-26T16:50:24.361Z,101059.81
2022-11-26T16:52:53.041Z,101056.84
2022-11-26T16:55:28.155Z,101052.94
2022-11-26T16:57:58.422Z,101050.94
2022-11-26T17:00:27.083Z,101045.50
2022-11-26T17:02:54.806Z,101052.50
2022-11-26T17:05:22.991Z,101051.94
2022-11-26T17:07:54.919Z,101053.25
2022-11-26T17:10:28.513Z,101058.09
2022-11-26T17:12:56.455Z,101056.66
2022-11-26T17:15:24.131Z,101055.41
2022-11-26T17:18:02.218Z,101065.31
2022-11-26T17:20:29.774Z,101060.72
2022-11-26T17:22:57.070Z,101071.81
2022-11-26T17:25:24.440Z,101067.78
2022-11-26T17:27:51.997Z,101079.84
2022-11-26T17:30:21.586Z,101071.66
2022-11-26T17:32:49.534Z,101081.09
2022-11-26T17:35:17.650Z,101075.47
2022-11-26T17:37:45.338Z,101078.34
2022-11-26T17:40:21.350Z,101069.34
2022-11-26T17:42:49.832Z,101072.56
2022-11-26T17:45:18.136Z,101066.66
2022-11-26T17:47:45.915Z,101075.47
2022-11-26T17:50:24.636Z,101077.50
2022-11-26T17:52:53.107Z,101072.31
2022-11-26T17:55:22.738Z,101077.50
2022-11-26T17:57:50.328Z,101080.13
2022-11-26T18:00:25.708Z,101077.28
2022-11-26T18:02:53.397Z,101076.41
2022-11-26T18:05:20.859Z,101076.28
2022-11-26T18:07:49.846Z,101070.59
2022-11-26T18:10:19.790Z,101071.53
2022-11-26T18:12:47.783Z,101069.97
2022-11-26T18:15:26.165Z,101058.13
2022-11-26T18:17:55.569Z,101056.75
2022-11-26T18:20:26.003Z,101061.84
2022-11-26T18:22:55.152Z,101061.97
2022-11-26T18:25:22.807Z,101064.09
2022-11-26T18:27:50.238Z,101066.00
2022-11-26T18:30:18.138Z,101078.88
2022-11-26T18:32:46.125Z,101077.56
2022-11-26T18:35:13.443Z,101070.78
2022-11-26T18:37:41.334Z,101063.22
2022-11-26T18:40:12.307Z,101072.59
2022-11-26T18:42:39.682Z,101071.78
2022-11-26T18:45:09.226Z,101067.91
2022-11-26T18:47:37.531Z,101060.41
2022-11-26T18:50:05.756Z,101068.09
2022-11-26T18:52:33.709Z,101065.97
2022-11-26T18:55:04.595Z,101065.28
2022-11-26T18:57:32.229Z,101060.09
2022-11-26T18:59:59.833Z,101062.22
2022-11-26T19:02:27.209Z,101072.38
2022-11-26T19:04:54.617Z,101077.09
2022-11-26T19:07:22.294Z,101076.47
2022-11-26T19:09:49.771Z,101076.88
2022-11-26T19:12:17.058Z,101077.91
2022-11-26T19:14:44.664Z,101083.38
2022-11-26T19:17:12.412Z,101077.13
2022-11-26T19:19:40.102Z,101075.06
2022-11-26T19:22:07.831Z,101079.28
2022-11-26T19:24:35.119Z,101074.22
2022-11-26T19:27:02.374Z,101071.16
2022-11-26T19:29:29.903Z,101078.06
2022-11-26T19:31:57.248Z,101080.78
2022-11-26T19:34:24.543Z,101079.78
2022-11-26T19:36:56.554Z,101090.78
2022-11-26T19:39:23.930Z,101091.69
2022-11-26T19:41:51.710Z,101095.28
2022-11-26T19:44:19.059Z,101083.19
2022-11-26T19:46:48.094Z,101088.47
2022-11-26T19:49:15.746Z,101092.78
2022-11-26T19:51:43.423Z,101082.28
2022-11-26T19:54:10.832Z,101094.56
2022-11-26T19:56:38.509Z,101089.47
2022-11-26T19:59:05.898Z,101098.75
2022-11-26T20:01:34.267Z,101095.38
2022-11-26T20:04:04.631Z,101105.38
2022-11-26T20:06:33.744Z,101101.25
2022-11-26T20:09:01.550Z,101106.19
2022-11-26T20:11:29.304Z,101099.53
2022-11-26T20:13:57.483Z,101112.16
2022-11-26T20:16:29.336Z,101113.88
2022-11-26T20:18:58.185Z,101111.13
2022-11-26T20:21:27.758Z,101104.13
2022-11-26T20:23:57.539Z,101108.47
2022-11-26T20:26:33.763Z,101109.75
2022-11-26T20:29:04.552Z,101098.59
2022-11-26T20:31:32.770Z,101095.06
2022-11-26T20:34:04.042Z,101094.66
2022-11-26T20:36:31.929Z,101094.28
2022-11-26T20:39:01.492Z,101096.34
2022-11-26T20:41:29.717Z,101091.84
2022-11-26T20:43:59.390Z,101091.16
2022-11-26T20:46:28.083Z,101096.53
2022-11-26T20:48:56.373Z,101094.13
2022-11-26T20:51:24.722Z,101091.72
2022-11-26T20:53:52.594Z,101094.19
2022-11-26T20:56:21.449Z,101098.47
2022-11-26T20:58:50.565Z,101098.94
2022-11-26T21:01:24.860Z,101093.81
2022-11-26T21:03:53.407Z,101092.13
2022-11-26T21:06:29.070Z,101096.75
2022-11-26T21:08:59.697Z,101094.34
2022-11-26T21:11:27.253Z,101095.44
2022-11-26T21:13:54.695Z,101093.44
2022-11-26T21:16:23.351Z,101097.13
2022-11-26T21:18:54.115Z,101087.84
2022-11-26T21:21:22.724Z,101097.84
2022-11-26T21:23:50.113Z,101089.94
2022-11-26T21:26:20.658Z,101084.81
2022-11-26T21:28:53.799Z,101096.03
2022-11-26T21:31:21.610Z,101089.47
2022-11-26T21:34:00.927Z,101092.44
2022-11-26T21:36:29.849Z,101094.91
2022-11-26T21:38:57.687Z,101098.50
2022-11-26T21:41:25.471Z,101093.53
2022-11-26T21:43:52.880Z,101099.47
2022-11-26T21:46:24.672Z,101107.25
2022-11-26T21:48:53.441Z,101100.16
2022-11-26T21:51:21.941Z,101108.16
2022-11-26T21:53:50.036Z,101108.84
2022-11-26T21:56:25.337Z,101111.06
2022-11-26T21:58:53.185Z,101119.78
2022-11-26T22:01:23.414Z,101121.94
2022-11-26T22:03:52.850Z,101125.94
2022-11-26T22:06:21.724Z,101125.03
2022-11-26T22:08:49.639Z,101123.56
2022-11-26T22:11:20.484Z,101127.63
2022-11-26T22:13:47.843Z,101127.06
2022-11-26T22:16:17.051Z,101121.06
2022-11-26T22:18:45.555Z,101123.69
2022-11-26T22:21:17.110Z,101118.72
2022-11-26T22:23:45.494Z,101125.22
2022-11-26T22:26:13.584Z,101120.19
2022-11-26T22:28:41.231Z,101116.56
2022-11-26T22:31:14.359Z,101116.25
2022-11-26T22:33:41.760Z,101108.13
2022-11-26T22:36:09.391Z,101104.91
2022-11-26T22:38:37.886Z,101108.94
2022-11-26T22:41:07.629Z,101105.31
2022-11-26T22:43:35.542Z,101108.13
2022-11-26T22:46:07.861Z,101104.34
2022-11-26T22:48:35.793Z,101108.84
2022-11-26T22:51:03.420Z,101102.88
2022-11-26T22:53:33.214Z,101106.16
2022-11-26T22:56:02.911Z,101109.13
2022-11-26T22:58:31.163Z,101106.47
2022-11-26T23:01:04.393Z,101109.06
2022-11-26T23:03:34.189Z,101111.91
2022-11-26T23:06:08.571Z,101101.25
2022-11-26T23:08:36.926Z,101105.38
2022-11-26T23:11:25.371Z,101099.16
2022-11-26T23:13:53.486Z,101098.72
2022-11-26T23:16:23.149Z,101100.09
2022-11-26T23:18:51.421Z,101101.41
2022-11-26T23:21:27.591Z,101096.44
2022-11-26T23:23:55.169Z,101087.34
2022-11-26T23:26:27.399Z,101084.25
2022-11-26T23:28:59.172Z,101082.75
2022-11-26T23:31:28.896Z,101077.56
2022-11-26T23:33:56.506Z,101079.50
2022-11-26T23:36:24.576Z,101085.03
2022-11-26T23:38:52.617Z,101092.38
2022-11-26T23:41:19.965Z,101097.75
2022-11-26T23:43:47.603Z,101093.63
2022-11-26T23:46:26.907Z,101094.72
2022-11-26T23:48:54.771Z,101090.09
2022-11-26T23:51:29.385Z,101085.63
2022-11-26T23:53:56.714Z,101088.50
2022-11-26T23:56:27.622Z,101091.69
2022-11-26T23:58:59.072Z,101082.03
